| Date | Time | Temp. (oF) | Dew Point (oF) | Rel. Hum. (%) | Press. (in.) | Wind Dir. (deg.) | Wind Speed (mph) | Hourly Rainfall (i n.) |
|
|---|---|---|---|---|---|---|---|---|---|
| 1 | 11/13 | 24:00 | 48 | 39 | 73 | 30.24 | 190 | 2 | 0.00 |
| 2 | 11/12 | 23:00 | 48 | 38 | 70 | 30.26 | 130 | 4 | 0.00 |
| 3 | 11/12 | 22:00 | 48 | 37 | 68 | 30.27 | 140 | 4 | 0.00 |
| 4 | 11/12 | 21:00 | 47 | 36 | 66 | 30.29 | 140 | 0 | 0.00 |
| 5 | 11/12 | 20:00 | 48 | 37 | 67 | 30.31 | 140 | 1 | 0.00 |
| 6 | 11/12 | 19:00 | 48 | 37 | 66 | 30.31 | 140 | 1 | 0.00 |
| 7 | 11/12 | 18:00 | 48 | 36 | 64 | 30.32 | 330 | 4 | 0.00 |
| 8 | 11/12 | 17:00 | 49 | 36 | 63 | 30.33 | 140 | 6 | 0.00 |
| 9 | 11/12 | 16:00 | 49 | 35 | 60 | 30.36 | 200 | 4 | 0.00 |
| 10 | 11/12 | 15:00 | 51 | 35 | 55 | 30.38 | 30 | 2 | 0.00 |
| 11 | 11/12 | 14:00 | 50 | 33 | 54 | 30.41 | 140 | 4 | 0.00 |
| 12 | 11/12 | 13:00 | 50 | 33 | 53 | 30.43 | 140 | 4 | 0.00 |
| 13 | 11/12 | 12:00 | 48 | 31 | 52 | 30.42 | 110 | 1 | 0.00 |
| 14 | 11/12 | 11:00 | 47 | 29 | 51 | 30.44 | 110 | 0 | 0.00 |
| 15 | 11/12 | 10:00 | 43 | 24 | 48 | 30.45 | 110 | 1 | 0.00 |
| 16 | 11/12 | 09:00 | 41 | 23 | 50 | 30.46 | 70 | 1 | 0.00 |
| 17 | 11/12 | 08:00 | 39 | 22 | 52 | 30.46 | 70 | 0 | 0.00 |
| 18 | 11/12 | 07:00 | 38 | 21 | 51 | 30.45 | 70 | 0 | 0.00 |
| 19 | 11/12 | 06:00 | 37 | 20 | 52 | 30.45 | 70 | 0 | 0.00 |
| 20 | 11/12 | 05:00 | 37 | 20 | 51 | 30.44 | 70 | 0 | 0.00 |
| 21 | 11/12 | 04:00 | 37 | 20 | 50 | 30.45 | 70 | 1 | 0.00 |
| 22 | 11/12 | 03:00 | 36 | 18 | 49 | 30.45 | 70 | 1 | 0.00 |
| 23 | 11/12 | 02:00 | 36 | 15 | 43 | 30.46 | 70 | 0 | 0.00 |
| 24 | 11/12 | 01:00 | 37 | 15 | 41 | 30.47 | 70 | 0 | 0.00 |